createdAt,value
2018-11-01T00:01:31.778Z,98316.91
2018-11-01T00:04:00.349Z,98320.16
2018-11-01T00:06:28.623Z,98330.60
2018-11-01T00:08:56.928Z,98336.86
2018-11-01T00:11:25.383Z,98338.08
2018-11-01T00:13:53.656Z,98334.02
2018-11-01T00:16:22.035Z,98331.73
2018-11-01T00:18:50.574Z,98332.92
2018-11-01T00:21:18.754Z,98332.64
2018-11-01T00:23:47.008Z,98334.58
2018-11-01T00:26:15.319Z,98331.04
2018-11-01T00:28:43.615Z,98326.27
2018-11-01T00:31:11.923Z,98339.79
2018-11-01T00:33:40.173Z,98335.53
2018-11-01T00:36:08.424Z,98328.76
2018-11-01T00:38:37.262Z,98330.81
2018-11-01T00:41:05.718Z,98333.48
2018-11-01T00:43:33.947Z,98329.30
2018-11-01T00:46:02.214Z,98329.63
2018-11-01T00:48:30.434Z,98329.03
2018-11-01T00:50:58.752Z,98319.68
2018-11-01T00:53:26.959Z,98310.22
2018-11-01T00:55:55.428Z,98315.54
2018-11-01T00:58:23.640Z,98319.69
2018-11-01T01:00:51.832Z,98322.94
2018-11-01T01:03:20.078Z,98322.75
2018-11-01T01:05:48.270Z,98326.80
2018-11-01T01:08:16.578Z,98325.00
2018-11-01T01:10:44.777Z,98336.27
2018-11-01T01:13:13.127Z,98335.55
2018-11-01T01:15:41.486Z,98332.63
2018-11-01T01:18:09.855Z,98329.28
2018-11-01T01:20:38.454Z,98328.64
2018-11-01T01:23:06.695Z,98325.32
2018-11-01T01:25:34.926Z,98319.30
2018-11-01T01:28:03.148Z,98301.72
2018-11-01T01:30:31.483Z,98292.45
2018-11-01T01:32:59.702Z,98287.22
2018-11-01T01:35:27.951Z,98271.87
2018-11-01T01:37:56.189Z,98273.91
2018-11-01T01:40:24.415Z,98273.62
2018-11-01T01:42:54.212Z,98284.40
2018-11-01T01:45:23.355Z,98283.49
2018-11-01T01:47:51.538Z,98278.39
2018-11-01T01:50:20.247Z,98291.16
2018-11-01T01:52:48.834Z,98287.27
2018-11-01T01:55:17.090Z,98278.09
2018-11-01T01:57:45.291Z,98279.61
2018-11-01T02:00:16.103Z,98274.72
2018-11-01T02:02:45.666Z,98258.72
2018-11-01T02:05:13.844Z,98254.59
2018-11-01T02:07:42.063Z,98252.39
2018-11-01T02:10:12.113Z,98255.27
2018-11-01T02:12:41.043Z,98246.78
2018-11-01T02:15:13.369Z,98242.36
2018-11-01T02:17:42.077Z,98237.50
2018-11-01T02:20:12.142Z,98237.22
2018-11-01T02:22:40.896Z,98235.94
2018-11-01T02:25:09.271Z,98233.19
2018-11-01T02:27:42.956Z,98222.78
2018-11-01T02:30:13.252Z,98226.91
2018-11-01T02:32:42.438Z,98239.48
2018-11-01T02:35:14.209Z,98244.68
2018-11-01T02:37:42.766Z,98238.19
2018-11-01T02:40:11.809Z,98235.30
2018-11-01T02:42:40.729Z,98238.11
2018-11-01T02:45:09.795Z,98252.84
2018-11-01T02:47:38.340Z,98253.98
2018-11-01T02:50:07.174Z,98234.48
2018-11-01T02:52:35.471Z,98228.82
2018-11-01T02:55:04.208Z,98228.72
2018-11-01T02:57:32.423Z,98237.00
2018-11-01T03:00:00.711Z,98236.61
2018-11-01T03:02:28.993Z,98240.51
2018-11-01T03:04:57.457Z,98219.91
2018-11-01T03:07:25.815Z,98209.33
2018-11-01T03:09:54.149Z,98200.61
2018-11-01T03:12:22.395Z,98199.69
2018-11-01T03:14:50.587Z,98204.66
2018-11-01T03:17:18.956Z,98197.02
2018-11-01T03:19:47.040Z,98197.25
2018-11-01T03:22:15.526Z,98199.44
2018-11-01T03:24:43.965Z,98206.92
2018-11-01T03:27:12.836Z,98213.77
2018-11-01T03:29:41.183Z,98217.73
2018-11-01T03:32:09.411Z,98218.33
2018-11-01T03:34:37.684Z,98228.73
2018-11-01T03:37:05.999Z,98232.71
2018-11-01T03:39:34.255Z,98245.90
2018-11-01T03:42:02.505Z,98244.22
2018-11-01T03:44:30.795Z,98240.87
2018-11-01T03:46:59.000Z,98224.44
2018-11-01T03:49:27.303Z,98227.98
2018-11-01T03:51:55.590Z,98229.18
2018-11-01T03:54:23.730Z,98209.06
2018-11-01T03:56:52.086Z,98205.02
2018-11-01T03:59:20.408Z,98195.05
2018-11-01T04:01:48.735Z,98195.77
2018-11-01T04:04:16.919Z,98191.90
2018-11-01T04:06:45.194Z,98179.55
2018-11-01T04:09:14.595Z,98176.80
2018-11-01T04:11:42.822Z,98181.91
2018-11-01T04:14:11.046Z,98197.52
2018-11-01T04:16:39.434Z,98199.92
2018-11-01T04:19:07.599Z,98198.55
2018-11-01T04:21:36.116Z,98203.18
2018-11-01T04:24:04.567Z,98197.81
2018-11-01T04:26:32.868Z,98192.90
2018-11-01T04:29:01.198Z,98194.99
2018-11-01T04:31:29.352Z,98196.85
2018-11-01T04:33:57.588Z,98192.78
2018-11-01T04:36:26.244Z,98184.38
2018-11-01T04:38:54.724Z,98182.20
2018-11-01T04:41:23.112Z,98184.52
2018-11-01T04:43:51.489Z,98179.53
2018-11-01T04:46:19.727Z,98191.88
2018-11-01T04:48:47.879Z,98188.59
2018-11-01T04:51:16.098Z,98176.81
2018-11-01T04:53:44.318Z,98164.77
2018-11-01T04:56:12.760Z,98165.73
2018-11-01T04:58:40.936Z,98163.95
2018-11-01T05:01:09.412Z,98168.21
2018-11-01T05:03:37.651Z,98168.52
2018-11-01T05:06:06.128Z,98164.36
2018-11-01T05:08:34.283Z,98170.13
2018-11-01T05:11:02.508Z,98175.86
2018-11-01T05:13:30.677Z,98178.80
2018-11-01T05:16:05.887Z,98164.23
2018-11-01T05:18:34.158Z,98160.72
2018-11-01T05:21:02.672Z,98155.90
2018-11-01T05:23:30.924Z,98161.68
2018-11-01T05:25:59.422Z,98151.31
2018-11-01T05:28:27.507Z,98161.33
2018-11-01T05:30:55.697Z,98157.75
2018-11-01T05:33:23.927Z,98155.59
2018-11-01T05:35:52.118Z,98149.48
2018-11-01T05:38:20.689Z,98149.48
2018-11-01T05:40:49.096Z,98139.95
2018-11-01T05:43:23.744Z,98141.26
2018-11-01T05:45:52.201Z,98141.26
2018-11-01T05:48:20.338Z,98135.78
2018-11-01T05:50:48.745Z,98128.25
2018-11-01T05:53:17.037Z,98129.27
2018-11-01T05:55:45.216Z,98134.83
2018-11-01T05:58:13.394Z,98127.48
2018-11-01T06:00:41.556Z,98121.25
2018-11-01T06:03:09.715Z,98126.77
2018-11-01T06:05:38.021Z,98124.91
2018-11-01T06:08:10.703Z,98118.79
2018-11-01T06:10:38.886Z,98111.40
2018-11-01T06:13:07.028Z,98111.17
2018-11-01T06:15:35.232Z,98104.51
2018-11-01T06:18:03.414Z,98105.98
2018-11-01T06:20:31.720Z,98119.52
2018-11-01T06:22:59.793Z,98128.21
2018-11-01T06:25:27.938Z,98142.41
2018-11-01T06:27:56.143Z,98144.48
2018-11-01T06:30:24.366Z,98146.25
2018-11-01T06:32:52.538Z,98146.21
2018-11-01T06:35:23.612Z,98146.39
2018-11-01T06:37:51.755Z,98148.70
2018-11-01T06:40:20.820Z,98142.53
2018-11-01T06:42:49.089Z,98136.94
2018-11-01T06:45:17.797Z,98131.84
2018-11-01T06:47:45.919Z,98125.16
2018-11-01T06:50:14.088Z,98120.72
2018-11-01T06:52:42.356Z,98131.65
2018-11-01T06:55:11.359Z,98126.30
2018-11-01T06:57:39.819Z,98120.41
2018-11-01T07:00:10.199Z,98127.27
2018-11-01T07:02:38.582Z,98126.41
2018-11-01T07:05:06.911Z,98125.21
2018-11-01T07:07:35.359Z,98118.70
2018-11-01T07:10:03.998Z,98115.52
2018-11-01T07:12:32.116Z,98126.13
2018-11-01T07:15:00.461Z,98127.33
2018-11-01T07:17:28.972Z,98151.71
2018-11-01T07:19:56.957Z,98150.41
2018-11-01T07:22:25.101Z,98146.73
2018-11-01T07:24:53.736Z,98150.80
2018-11-01T07:27:21.982Z,98145.31
2018-11-01T07:29:50.138Z,98147.07
2018-11-01T07:32:18.404Z,98144.64
2018-11-01T07:34:46.564Z,98135.77
2018-11-01T07:37:14.847Z,98137.73
2018-11-01T07:39:43.071Z,98133.63
2018-11-01T07:42:11.216Z,98151.66
2018-11-01T07:44:39.440Z,98168.47
2018-11-01T07:47:07.616Z,98169.40
2018-11-01T07:49:35.959Z,98164.65
2018-11-01T07:52:04.239Z,98158.28
2018-11-01T07:54:32.386Z,98155.87
2018-11-01T07:57:00.561Z,98168.18
2018-11-01T07:59:29.136Z,98160.81
2018-11-01T08:01:57.350Z,98170.83
2018-11-01T08:04:25.824Z,98154.98
2018-11-01T08:06:55.027Z,98155.10
2018-11-01T08:09:23.236Z,98160.35
2018-11-01T08:11:51.508Z,98176.03
2018-11-01T08:14:19.578Z,98159.81
2018-11-01T08:16:48.002Z,98180.45
2018-11-01T08:19:16.422Z,98181.20
2018-11-01T08:21:44.658Z,98184.05
2018-11-01T08:24:12.799Z,98182.23
2018-11-01T08:26:41.084Z,98186.65
2018-11-01T08:29:09.352Z,98186.06
2018-11-01T08:31:37.517Z,98194.44
2018-11-01T08:34:05.706Z,98186.50
2018-11-01T08:36:33.855Z,98208.56
2018-11-01T08:39:02.061Z,98214.64
2018-11-01T08:41:30.231Z,98210.77
2018-11-01T08:43:58.540Z,98225.23
2018-11-01T08:46:26.724Z,98229.59
2018-11-01T08:48:54.889Z,98248.84
2018-11-01T08:51:23.234Z,98235.41
2018-11-01T08:53:51.440Z,98235.97
2018-11-01T08:56:19.749Z,98236.02
2018-11-01T08:58:47.923Z,98220.38
2018-11-01T09:01:16.199Z,98216.65
2018-11-01T09:03:44.391Z,98228.62
2018-11-01T09:06:12.519Z,98217.97
2018-11-01T09:08:40.835Z,98225.00
2018-11-01T09:11:09.120Z,98225.87
2018-11-01T09:13:37.412Z,98236.36
2018-11-01T09:16:05.586Z,98251.22
2018-11-01T09:18:33.735Z,98244.34
2018-11-01T09:21:01.871Z,98243.03
2018-11-01T09:23:30.150Z,98239.58
2018-11-01T09:25:58.567Z,98246.81
2018-11-01T09:28:28.134Z,98259.77
2018-11-01T09:30:59.432Z,98264.55
2018-11-01T09:33:27.900Z,98259.10
2018-11-01T09:35:56.135Z,98270.66
2018-11-01T09:38:24.319Z,98275.05
2018-11-01T09:40:52.496Z,98268.66
2018-11-01T09:43:20.963Z,98255.58
2018-11-01T09:45:49.143Z,98259.62
2018-11-01T09:48:17.284Z,98246.79
2018-11-01T09:50:45.548Z,98251.52
2018-11-01T09:53:13.840Z,98243.61
2018-11-01T09:55:42.176Z,98232.58
2018-11-01T09:58:10.528Z,98229.96
2018-11-01T10:00:38.678Z,98231.94
2018-11-01T10:03:06.846Z,98217.25
2018-11-01T10:05:35.016Z,98210.68
2018-11-01T10:08:03.194Z,98215.36
2018-11-01T10:10:31.647Z,98205.36
2018-11-01T10:12:59.891Z,98199.17
2018-11-01T10:15:28.892Z,98185.36
2018-11-01T10:17:57.308Z,98172.69
2018-11-01T10:20:25.177Z,98156.09
2018-11-01T10:22:53.403Z,98152.29
2018-11-01T10:25:21.878Z,98145.91
2018-11-01T10:27:50.101Z,98150.27
2018-11-01T10:30:20.523Z,98143.30
2018-11-01T10:32:48.765Z,98137.92
2018-11-01T10:35:17.941Z,98142.64
2018-11-01T10:37:46.268Z,98131.36
2018-11-01T10:40:16.711Z,98105.29
2018-11-01T10:42:44.910Z,98091.38
2018-11-01T10:45:13.124Z,98087.39
2018-11-01T10:47:41.352Z,98090.69
2018-11-01T10:50:11.950Z,98091.23
2018-11-01T10:52:40.609Z,98083.17
2018-11-01T10:55:09.655Z,98082.47
2018-11-01T10:57:37.873Z,98081.16
2018-11-01T11:00:07.047Z,98078.59
2018-11-01T11:02:35.143Z,98084.47
2018-11-01T11:05:03.603Z,98106.42
2018-11-01T11:07:31.901Z,98118.03
2018-11-01T11:10:00.169Z,98127.16
2018-11-01T11:12:28.384Z,98137.45
2018-11-01T11:14:56.587Z,98130.51
2018-11-01T11:17:24.752Z,98144.62
2018-11-01T11:19:53.456Z,98139.63
2018-11-01T11:22:21.722Z,98138.78
2018-11-01T11:24:49.922Z,98138.86
2018-11-01T11:27:18.357Z,98133.07
2018-11-01T11:29:46.680Z,98131.64
2018-11-01T11:32:15.054Z,98126.77
2018-11-01T11:34:43.516Z,98127.81
2018-11-01T11:37:11.826Z,98129.67
2018-11-01T11:39:40.099Z,98124.69
2018-11-01T11:42:08.193Z,98128.10
2018-11-01T11:44:36.467Z,98129.97
2018-11-01T11:47:04.959Z,98146.73
2018-11-01T11:49:33.426Z,98156.30
2018-11-01T11:52:01.868Z,98166.50
2018-11-01T11:54:31.059Z,98165.91
2018-11-01T11:56:59.292Z,98178.27
2018-11-01T11:59:27.407Z,98193.53
2018-11-01T12:01:55.563Z,98208.83
2018-11-01T12:04:23.899Z,98216.78
2018-11-01T12:06:52.228Z,98230.88
2018-11-01T12:09:20.442Z,98231.65
2018-11-01T12:11:48.628Z,98243.14
2018-11-01T12:14:17.073Z,98245.73
2018-11-01T12:16:45.259Z,98243.47
2018-11-01T12:19:13.643Z,98257.34
2018-11-01T12:21:42.095Z,98268.79
2018-11-01T12:24:10.513Z,98277.86
2018-11-01T12:26:38.692Z,98286.62
2018-11-01T12:29:07.145Z,98295.74
2018-11-01T12:31:35.249Z,98304.31
2018-11-01T12:34:03.399Z,98305.89
2018-11-01T12:36:32.021Z,98312.22
2018-11-01T12:39:00.424Z,98302.72
2018-11-01T12:41:28.915Z,98314.63
2018-11-01T12:43:56.995Z,98315.97
2018-11-01T12:46:25.147Z,98310.06
2018-11-01T12:48:53.432Z,98299.41
2018-11-01T12:51:21.751Z,98293.58
2018-11-01T12:53:49.919Z,98289.53
2018-11-01T12:56:18.367Z,98285.73
2018-11-01T12:58:46.835Z,98278.98
2018-11-01T13:01:15.060Z,98277.66
2018-11-01T13:03:43.320Z,98276.66
2018-11-01T13:06:11.780Z,98275.53
2018-11-01T13:08:40.206Z,98271.63
2018-11-01T13:11:08.631Z,98272.38
2018-11-01T13:13:36.948Z,98266.64
2018-11-01T13:16:05.350Z,98269.95
2018-11-01T13:18:33.753Z,98270.37
2018-11-01T13:21:03.186Z,98266.05
2018-11-01T13:23:31.324Z,98265.26
2018-11-01T13:25:59.501Z,98272.32
2018-11-01T13:28:27.741Z,98276.96
2018-11-01T13:30:56.011Z,98273.38
2018-11-01T13:33:24.232Z,98276.72
2018-11-01T13:35:52.426Z,98275.28
2018-11-01T13:38:20.816Z,98272.59
2018-11-01T13:40:49.541Z,98280.55
2018-11-01T13:43:17.439Z,98273.05
2018-11-01T13:45:45.571Z,98279.41
2018-11-01T13:48:13.893Z,98273.12
2018-11-01T13:50:42.091Z,98268.91
2018-11-01T13:53:10.519Z,98274.02
2018-11-01T13:55:38.648Z,98267.52
2018-11-01T13:58:06.868Z,98276.17
2018-11-01T14:00:35.048Z,98282.39
2018-11-01T14:03:04.346Z,98282.25
2018-11-01T14:05:32.670Z,98279.36
2018-11-01T14:08:00.775Z,98281.50
2018-11-01T14:10:29.100Z,98282.23
2018-11-01T14:12:57.457Z,98282.70
2018-11-01T14:15:26.094Z,98286.26
2018-11-01T14:17:53.939Z,98289.89
2018-11-01T14:20:23.225Z,98288.41
2018-11-01T14:22:51.423Z,98289.80
2018-11-01T14:25:19.646Z,98291.58
2018-11-01T14:27:47.765Z,98293.89
2018-11-01T14:30:16.819Z,98296.70
2018-11-01T14:32:45.096Z,98291.89
2018-11-01T14:35:14.691Z,98298.17
2018-11-01T14:37:43.094Z,98292.91
2018-11-01T14:40:12.743Z,98292.06
2018-11-01T14:42:41.155Z,98290.48
2018-11-01T14:45:09.864Z,98294.64
2018-11-01T14:47:38.447Z,98294.13
2018-11-01T14:50:07.530Z,98303.09
2018-11-01T14:52:36.150Z,98296.48
2018-11-01T14:55:05.446Z,98297.70
2018-11-01T14:57:33.883Z,98290.06
2018-11-01T15:00:00.802Z,98289.60
2018-11-01T15:02:29.011Z,98279.27
2018-11-01T15:04:57.284Z,98281.92
2018-11-01T15:07:25.647Z,98286.56
2018-11-01T15:09:53.959Z,98284.77
2018-11-01T15:12:22.267Z,98286.80
2018-11-01T15:14:50.452Z,98290.37
2018-11-01T15:17:18.628Z,98299.38
2018-11-01T15:19:46.847Z,98299.53
2018-11-01T15:22:15.241Z,98290.64
2018-11-01T15:24:43.420Z,98287.16
2018-11-01T15:27:11.768Z,98284.38
2018-11-01T15:29:40.072Z,98280.42
2018-11-01T15:32:08.248Z,98276.86
2018-11-01T15:34:37.071Z,98279.89
2018-11-01T15:37:05.207Z,98276.30
2018-11-01T15:39:33.349Z,98283.53
2018-11-01T15:42:01.820Z,98284.92
2018-11-01T15:44:30.120Z,98285.27
2018-11-01T15:46:58.374Z,98292.22
2018-11-01T15:49:26.635Z,98293.24
2018-11-01T15:51:55.104Z,98288.95
2018-11-01T15:54:23.568Z,98291.88
2018-11-01T15:56:51.971Z,98295.97
2018-11-01T15:59:20.519Z,98290.59
2018-11-01T16:01:48.891Z,98298.95
2018-11-01T16:04:17.384Z,98290.14
2018-11-01T16:06:45.644Z,98297.07
2018-11-01T16:09:14.408Z,98303.84
2018-11-01T16:11:42.981Z,98307.64
2018-11-01T16:14:11.582Z,98312.10
2018-11-01T16:16:40.368Z,98307.13
2018-11-01T16:19:09.283Z,98324.15
2018-11-01T16:21:38.674Z,98318.48
2018-11-01T16:24:06.983Z,98321.02
2018-11-01T16:26:35.224Z,98327.95
2018-11-01T16:29:03.671Z,98330.47
2018-11-01T16:31:32.327Z,98329.23
2018-11-01T16:34:00.452Z,98325.95
2018-11-01T16:36:28.807Z,98329.76
2018-11-01T16:38:56.981Z,98339.55
2018-11-01T16:41:25.166Z,98344.06
2018-11-01T16:43:53.313Z,98354.55
2018-11-01T16:46:21.530Z,98367.23
2018-11-01T16:48:49.857Z,98380.12
2018-11-01T16:51:18.072Z,98383.85
2018-11-01T16:53:52.900Z,98384.86
2018-11-01T16:56:21.193Z,98390.48
2018-11-01T16:58:55.971Z,98387.38
2018-11-01T17:01:24.191Z,98390.98
2018-11-01T17:03:52.554Z,98399.80
2018-11-01T17:06:20.840Z,98416.97
2018-11-01T17:08:49.109Z,98416.97
2018-11-01T17:11:17.414Z,98428.52
2018-11-01T17:13:45.691Z,98436.16
2018-11-01T17:16:14.045Z,98440.80
2018-11-01T17:18:42.402Z,98440.54
2018-11-01T17:21:10.713Z,98433.75
2018-11-01T17:23:38.868Z,98428.63
2018-11-01T17:26:07.364Z,98433.27
2018-11-01T17:28:35.786Z,98431.37
2018-11-01T17:31:04.027Z,98442.80
2018-11-01T17:33:32.196Z,98456.28
2018-11-01T17:36:00.536Z,98454.71
2018-11-01T17:38:28.678Z,98458.53
2018-11-01T17:40:57.232Z,98457.11
2018-11-01T17:43:25.499Z,98460.59
2018-11-01T17:45:53.844Z,98461.78
2018-11-01T17:48:22.192Z,98473.83
2018-11-01T17:50:50.461Z,98486.64
2018-11-01T17:53:18.938Z,98492.58
2018-11-01T17:55:47.199Z,98493.28
2018-11-01T17:58:15.449Z,98498.52
2018-11-01T18:00:43.686Z,98506.00
2018-11-01T18:03:11.857Z,98515.95
2018-11-01T18:05:40.104Z,98520.69
2018-11-01T18:08:08.387Z,98521.52
2018-11-01T18:10:36.649Z,98519.38
2018-11-01T18:13:04.865Z,98510.48
2018-11-01T18:15:33.089Z,98524.43
2018-11-01T18:18:01.305Z,98518.40
2018-11-01T18:20:29.473Z,98521.66
2018-11-01T18:22:57.627Z,98527.04
2018-11-01T18:25:25.935Z,98533.13
2018-11-01T18:27:54.091Z,98532.41
2018-11-01T18:30:22.261Z,98532.99
2018-11-01T18:32:50.657Z,98535.34
2018-11-01T18:35:18.800Z,98537.11
2018-11-01T18:37:46.986Z,98541.02
2018-11-01T18:40:16.669Z,98550.31
2018-11-01T18:42:44.899Z,98544.38
2018-11-01T18:45:14.294Z,98556.42
2018-11-01T18:47:43.058Z,98557.27
2018-11-01T18:50:12.500Z,98557.49
2018-11-01T18:52:40.981Z,98559.89
2018-11-01T18:55:10.388Z,98559.18
2018-11-01T18:57:38.536Z,98571.57
2018-11-01T19:00:09.155Z,98585.60
2018-11-01T19:02:37.268Z,98590.70
2018-11-01T19:05:05.724Z,98590.26
2018-11-01T19:07:33.980Z,98588.95
2018-11-01T19:10:02.336Z,98597.77
2018-11-01T19:12:30.527Z,98610.16
2018-11-01T19:14:58.723Z,98618.94
2018-11-01T19:17:26.944Z,98630.16
2018-11-01T19:19:55.143Z,98650.63
2018-11-01T19:22:23.368Z,98679.45
2018-11-01T19:24:51.632Z,98702.84
2018-11-01T19:27:20.149Z,98719.77
2018-11-01T19:29:48.233Z,98724.34
2018-11-01T19:32:16.981Z,98704.61
2018-11-01T19:34:45.223Z,98673.41
2018-11-01T19:37:13.528Z,98645.73
2018-11-01T19:39:41.673Z,98629.98
2018-11-01T19:42:09.858Z,98676.76
2018-11-01T19:44:38.112Z,98681.28
2018-11-01T19:47:06.332Z,98668.41
2018-11-01T19:49:34.624Z,98671.12
2018-11-01T19:52:02.716Z,98666.36
2018-11-01T19:54:31.107Z,98675.90
2018-11-01T19:56:59.234Z,98678.65
2018-11-01T19:59:27.359Z,98686.65
2018-11-01T20:01:55.888Z,98684.63
2018-11-01T20:04:24.185Z,98675.42
2018-11-01T20:06:52.339Z,98653.72
2018-11-01T20:09:20.575Z,98645.48
2018-11-01T20:11:48.730Z,98640.92
2018-11-01T20:14:16.984Z,98645.59
2018-11-01T20:16:45.124Z,98645.00
2018-11-01T20:19:14.076Z,98631.64
2018-11-01T20:21:42.089Z,98623.06
2018-11-01T20:24:10.369Z,98638.42
2018-11-01T20:26:38.721Z,98632.70
2018-11-01T20:29:07.307Z,98642.86
2018-11-01T20:31:35.624Z,98655.74
2018-11-01T20:34:03.796Z,98647.73
2018-11-01T20:36:32.027Z,98643.79
2018-11-01T20:39:00.292Z,98647.73
2018-11-01T20:41:28.439Z,98651.34
2018-11-01T20:43:56.620Z,98646.44
2018-11-01T20:46:25.103Z,98647.03
2018-11-01T20:48:53.316Z,98644.28
2018-11-01T20:51:21.504Z,98658.72
2018-11-01T20:53:50.346Z,98659.92
2018-11-01T20:56:18.525Z,98655.50
2018-11-01T20:58:46.698Z,98646.69
2018-11-01T21:01:15.015Z,98654.91
2018-11-01T21:03:43.216Z,98656.02
2018-11-01T21:06:11.460Z,98666.98
2018-11-01T21:08:39.640Z,98672.45
2018-11-01T21:11:07.953Z,98665.80
2018-11-01T21:13:36.217Z,98666.60
2018-11-01T21:16:04.507Z,98672.70
2018-11-01T21:18:32.665Z,98680.56
2018-11-01T21:21:00.986Z,98678.41
2018-11-01T21:23:29.585Z,98682.47
2018-11-01T21:25:58.276Z,98684.84
2018-11-01T21:28:26.599Z,98690.59
2018-11-01T21:30:54.847Z,98693.56
2018-11-01T21:33:23.207Z,98692.04
2018-11-01T21:35:52.476Z,98683.79
2018-11-01T21:38:20.676Z,98698.22
2018-11-01T21:40:48.913Z,98705.97
2018-11-01T21:43:17.184Z,98715.39
2018-11-01T21:45:45.556Z,98719.94
2018-11-01T21:48:13.818Z,98725.52
2018-11-01T21:50:42.096Z,98727.45
2018-11-01T21:53:10.447Z,98733.74
2018-11-01T21:55:38.595Z,98728.09
2018-11-01T21:58:07.092Z,98732.09
2018-11-01T22:02:37.984Z,98740.38
2018-11-01T22:05:06.568Z,98733.93
2018-11-01T22:07:34.789Z,98738.15
2018-11-01T22:10:03.156Z,98741.59
2018-11-01T22:12:31.427Z,98738.50
2018-11-01T22:14:59.571Z,98734.77
2018-11-01T22:17:27.878Z,98737.16
2018-11-01T22:19:56.178Z,98742.28
2018-11-01T22:22:24.499Z,98730.70
2018-11-01T22:24:52.632Z,98731.57
2018-11-01T22:27:20.739Z,98735.85
2018-11-01T22:29:48.899Z,98737.39
2018-11-01T22:32:17.088Z,98737.59
2018-11-01T22:34:45.239Z,98737.09
2018-11-01T22:37:13.383Z,98736.30
2018-11-01T22:39:41.622Z,98734.60
2018-11-01T22:42:10.042Z,98728.59
2018-11-01T22:44:38.555Z,98717.27
2018-11-01T22:47:06.950Z,98719.39
2018-11-01T22:49:35.098Z,98722.54
2018-11-01T22:52:03.508Z,98725.12
2018-11-01T22:54:31.808Z,98729.70
2018-11-01T22:56:59.952Z,98730.58
2018-11-01T22:59:28.093Z,98739.02
2018-11-01T23:01:56.340Z,98739.52
2018-11-01T23:04:24.636Z,98748.91
2018-11-01T23:06:52.776Z,98751.77
2018-11-01T23:09:20.913Z,98749.30
2018-11-01T23:11:49.345Z,98753.69
2018-11-01T23:14:17.571Z,98759.59
2018-11-01T23:16:45.759Z,98765.17
2018-11-01T23:19:14.303Z,98767.64
2018-11-01T23:21:42.651Z,98767.05
2018-11-01T23:24:10.772Z,98782.77
2018-11-01T23:26:38.995Z,98787.31
2018-11-01T23:29:07.190Z,98794.80
2018-11-01T23:31:35.572Z,98800.61
2018-11-01T23:34:03.920Z,98801.69
2018-11-01T23:36:37.595Z,98798.68
2018-11-01T23:39:13.591Z,98794.44
2018-11-01T23:41:47.810Z,98793.85
2018-11-01T23:44:21.675Z,98787.44
2018-11-01T23:46:55.719Z,98790.59
2018-11-01T23:49:28.876Z,98787.05
2018-11-01T23:52:00.855Z,98783.66
2018-11-01T23:54:29.095Z,98779.93
2018-11-01T23:56:58.157Z,98786.85
2018-11-01T23:59:26.345Z,98792.88
